TimeCST,TemperatureF,Dew PointF,Humidity,Sea Level PressureIn,VisibilityMPH,Wind Direction,Wind SpeedMPH,Gust SpeedMPH,PrecipitationIn,Events,Conditions,WindDirDegrees,DateUTC
12:53 AM,27.0,19.9,75,30.23,6.0,WNW,4.6,-,N/A,,Haze,290,2013-01-26 06:53:00
1:53 AM,27.0,19.0,72,30.24,7.0,West,8.1,-,N/A,,Clear,260,2013-01-26 07:53:00
2:53 AM,25.0,18.0,75,30.26,7.0,WNW,6.9,-,N/A,,Clear,300,2013-01-26 08:53:00
3:53 AM,26.1,18.0,71,30.26,7.0,NNW,9.2,-,N/A,,Clear,340,2013-01-26 09:53:00
4:53 AM,21.9,16.0,78,30.28,7.0,North,8.1,-,N/A,,Clear,350,2013-01-26 10:53:00
6:53 AM,21.0,12.0,68,30.35,8.0,North,11.5,-,N/A,,Clear,360,2013-01-26 12:53:00
7:53 AM,21.9,12.9,68,30.36,7.0,North,9.2,-,N/A,,Clear,10,2013-01-26 13:53:00
8:53 AM,25.0,15.1,66,30.38,6.0,NNE,6.9,-,N/A,,Haze,30,2013-01-26 14:53:00
9:53 AM,27.0,16.0,63,30.41,6.0,NE,6.9,-,N/A,,Haze,40,2013-01-26 15:53:00
10:53 AM,30.0,17.1,59,30.42,6.0,Calm,Calm,-,N/A,,Haze,0,2013-01-26 16:53:00
11:53 AM,32.0,16.0,52,30.40,7.0,Variable,4.6,-,N/A,,Clear,0,2013-01-26 17:53:00
12:53 PM,34.0,16.0,48,30.40,7.0,WNW,6.9,-,N/A,,Clear,300,2013-01-26 18:53:00
1:53 PM,35.1,16.0,46,30.38,7.0,Variable,5.8,-,N/A,,Clear,0,2013-01-26 19:53:00
2:53 PM,36.0,16.0,44,30.37,7.0,NNW,3.5,-,N/A,,Clear,340,2013-01-26 20:53:00
3:53 PM,36.0,16.0,44,30.37,7.0,ENE,5.8,-,N/A,,Clear,70,2013-01-26 21:53:00
4:53 PM,32.0,17.1,54,30.38,7.0,ENE,5.8,-,N/A,,Clear,60,2013-01-26 22:53:00
5:53 PM,28.9,17.1,61,30.39,8.0,Calm,Calm,-,N/A,,Clear,0,2013-01-26 23:53:00
6:53 PM,28.0,19.0,69,30.41,8.0,NE,3.5,-,N/A,,Clear,40,2013-01-27 00:53:00
7:53 PM,27.0,19.0,72,30.41,7.0,NE,4.6,-,N/A,,Clear,40,2013-01-27 01:53:00
8:53 PM,25.0,17.1,72,30.41,7.0,ENE,5.8,-,N/A,,Clear,70,2013-01-27 02:53:00
9:53 PM,26.1,17.1,69,30.41,7.0,ENE,5.8,-,N/A,,Clear,70,2013-01-27 03:53:00
10:53 PM,25.0,17.1,72,30.42,6.0,ENE,6.9,-,N/A,,Haze,70,2013-01-27 04:53:00
11:53 PM,25.0,17.1,72,30.40,6.0,East,8.1,-,N/A,,Haze,100,2013-01-27 05:53:00